ESNN/SDL METAR and TAF weather

Enter ICAO airport designator
Station Type Date Time Source
ESNN METAR 2021/01/17 18:50 UTC NOAA

ESNN 171850Z AUTO 31003KT 9999 NCD M14/M15 Q1013


Station Type Date Time Source
ESNN Decoded METAR 2021/01/17 18:50 UTC NOAA

Sundsvall-Harnosand Flygplats, Sweden (ESNN) 62-32N 017-27E 10M
Jan 17, 2021 - 01:50 PM EST / 2021.01.17 1850 UTC
Wind: from the NW (310 degrees) at 3 MPH (3 KT):0
Visibility: greater than 7 mile(s):0
Temperature: 6 F (-14 C)
Dew Point: 5 F (-15 C)
Relative Humidity: 92%
Pressure (altimeter): 29.91 in. Hg (1013 hPa)
ob: ESNN 171850Z AUTO 31003KT 9999 NCD M14/M15 Q1013
cycle: 19

Station Type Date Time Source
ESNN TAF 2016/05/29 09:33 UTC NOAA

TAF TAF ESNN 290830Z 2909/3018 07006KT 9999 SCT045
BECMG 2913/2915 14010KT

Example: see airport list